Portada
METAR-TAF:

METAR-TAF

Aeroports :

Katherine, Austràlia

latitud: 14-26S, longitud: 132-16E, altitud: 108 m

Observació

L'informe es va fer fa 41 minuts, a les 16:30 UTC
Vent calma
Temperatura 22°C
Humitat 78%
Pressió 1010 hPa
Visibilitat 10 km o més

METAR: YPTN 201630Z AUTO 00000KT 9999 // NCD 22/18 Q1010

Hora: 02:41 (17:11 UTC)

Pronòstic

L'informe es va fer fa 6 hores i 4 minuts, a les 11:07 UTC
Pronòstic vàlid del 20 a les 12 UTC al 21 a les 12 UTC
Vent 5 kt del Est
Visibilitat 10 km o més
sense núvols per sota de 1500 mi sense presència de cumulonimbus.
A partir de les 21 a les 0000 UTC
Vent 10 kt del Est/Sud-Est
Visibilitat 10 km o més
sense núvols per sota de 1500 mi sense presència de cumulonimbus.
A partir de les 21 a les 0800 UTC
Vent 5 kt del Est
Visibilitat 10 km o més
sense núvols per sota de 1500 mi sense presència de cumulonimbus.

TAF: YPTN 201107Z 2012/2112 10005KT CAVOK FM210000 12010KT CAVOK FM210800 10005KT CAVOK

Observacions i pronòstics meteorològics de més de 4000 aeroports (METAR i TAF).

Les estacions disponibles són els punts grocs i vermells al mapa.

Posi el ratolí al punt desitjat per veure el nom de l'estació.

Feu clic per veure les observacions i els pronòstics meteorològics.

Per canviar el mapa: feu clic els botons verds amb una creu de color negre per apropar; al botó verd amb un guió per allunyar la imatge; o en les fletxes verdes per a mapes adjacents.


METAR-TAF: